createdAt,value
2017-01-19T00:00:24.822Z,1034.4
2017-01-19T00:01:35.538Z,1034.35
2017-01-19T00:02:46.250Z,1034.31
2017-01-19T00:03:57.000Z,1034.33
2017-01-19T00:05:07.706Z,1034.26
2017-01-19T00:06:18.434Z,1034.28
2017-01-19T00:07:29.134Z,1034.28
2017-01-19T00:08:39.840Z,1034.32
2017-01-19T00:09:50.583Z,1034.29
2017-01-19T00:11:01.301Z,1034.25
2017-01-19T00:12:12.414Z,1034.23
2017-01-19T00:13:23.142Z,1034.25
2017-01-19T00:14:33.856Z,1034.27
2017-01-19T00:15:44.559Z,1034.28
2017-01-19T00:16:55.301Z,1034.27
2017-01-19T00:18:05.993Z,1034.25
2017-01-19T00:19:16.717Z,1034.21
2017-01-19T00:20:27.416Z,1034.21
2017-01-19T00:21:38.133Z,1034.18
2017-01-19T00:22:48.842Z,1034.2
2017-01-19T00:23:59.546Z,1034.21
2017-01-19T00:25:10.271Z,1034.21
2017-01-19T00:26:20.992Z,1034.24
2017-01-19T00:27:31.722Z,1034.12
2017-01-19T00:28:42.444Z,1034.12
2017-01-19T00:29:53.180Z,1034.11
2017-01-19T00:31:03.908Z,1034.08
2017-01-19T00:32:14.643Z,1034.08
2017-01-19T00:33:25.343Z,1034.07
2017-01-19T00:34:36.059Z,1034.09
2017-01-19T00:35:46.784Z,1034.17
2017-01-19T00:36:57.482Z,1034.18
2017-01-19T00:38:08.205Z,1034.19
2017-01-19T00:39:18.932Z,1034.17
2017-01-19T00:40:29.668Z,1034.22
2017-01-19T00:41:40.393Z,1034.13
2017-01-19T00:42:51.073Z,1034.18
2017-01-19T00:44:01.784Z,1034.17
2017-01-19T00:45:12.535Z,1034.19
2017-01-19T00:46:23.247Z,1034.19
2017-01-19T00:47:33.991Z,1034.21
2017-01-19T00:48:44.693Z,1034.21
2017-01-19T00:49:55.417Z,1034.24
2017-01-19T00:51:06.131Z,1034.21
2017-01-19T00:52:16.877Z,1034.22
2017-01-19T00:53:27.560Z,1034.23
2017-01-19T00:54:38.265Z,1034.27
2017-01-19T00:55:48.972Z,1034.33
2017-01-19T00:56:59.714Z,1034.28
2017-01-19T00:58:10.428Z,1034.27
2017-01-19T00:59:21.138Z,1034.27
2017-01-19T01:00:31.858Z,1034.27
2017-01-19T01:01:42.555Z,1034.32
2017-01-19T01:02:53.278Z,1034.29
2017-01-19T01:04:04.007Z,1034.29
2017-01-19T01:05:14.715Z,1034.18
2017-01-19T01:06:25.461Z,1034.19
2017-01-19T01:07:36.199Z,1034.14
2017-01-19T01:08:46.924Z,1034.14
2017-01-19T01:09:57.636Z,1034.17
2017-01-19T01:11:08.358Z,1034.2
2017-01-19T01:12:19.079Z,1034.15
2017-01-19T01:13:29.800Z,1034.13
2017-01-19T01:14:40.524Z,1034.07
2017-01-19T01:15:51.257Z,1034.09
2017-01-19T01:17:01.978Z,1034.12
2017-01-19T01:18:12.683Z,1034.08
2017-01-19T01:19:23.380Z,1034.11
2017-01-19T01:20:34.075Z,1034.12
2017-01-19T01:21:44.784Z,1034.11
2017-01-19T01:22:55.495Z,1034.1
2017-01-19T01:24:06.223Z,1034.09
2017-01-19T01:25:16.948Z,1034.12
2017-01-19T01:26:27.683Z,1034.1
2017-01-19T01:27:38.458Z,1034.06
2017-01-19T01:28:49.163Z,1034.1
2017-01-19T01:29:59.892Z,1034.08
2017-01-19T01:31:10.575Z,1034.13
2017-01-19T01:32:21.287Z,1034.1
2017-01-19T01:33:32.008Z,1034.06
2017-01-19T01:34:42.729Z,1034.1
2017-01-19T01:35:53.425Z,1034.1
2017-01-19T01:37:04.129Z,1034.11
2017-01-19T01:38:14.866Z,1034.1
2017-01-19T01:39:25.592Z,1034.14
2017-01-19T01:40:36.293Z,1034.14
2017-01-19T01:41:47.002Z,1034.13
2017-01-19T01:42:57.705Z,1034.15
2017-01-19T01:44:08.794Z,1034.16
2017-01-19T01:45:19.502Z,1034.1
2017-01-19T01:46:30.211Z,1034.08
2017-01-19T01:47:40.937Z,1034.02
2017-01-19T01:48:51.670Z,1034.01
2017-01-19T01:50:02.389Z,1033.98
2017-01-19T01:51:13.126Z,1034.05
2017-01-19T01:52:23.896Z,1034.03
2017-01-19T01:53:34.623Z,1034.04
2017-01-19T01:54:45.326Z,1034.12
2017-01-19T01:55:56.093Z,1034.07
2017-01-19T01:57:06.828Z,1034.09
2017-01-19T01:58:17.549Z,1034.07
2017-01-19T01:59:28.255Z,1034.06
2017-01-19T02:00:38.971Z,1034.05
2017-01-19T02:01:49.699Z,1034.09
2017-01-19T02:03:00.413Z,1034.05
2017-01-19T02:04:11.135Z,1034.11
2017-01-19T02:05:21.867Z,1034.12
2017-01-19T02:06:32.606Z,1034.15
2017-01-19T02:07:43.348Z,1034.16
2017-01-19T02:08:54.066Z,1034.12
2017-01-19T02:10:04.766Z,1034.14
2017-01-19T02:11:15.487Z,1034.11
2017-01-19T02:12:26.183Z,1034.06
2017-01-19T02:13:36.901Z,1034.05
2017-01-19T02:14:47.601Z,1034.06
2017-01-19T02:15:58.332Z,1034.04
2017-01-19T02:17:09.032Z,1034.02
2017-01-19T02:18:19.752Z,1034.04
2017-01-19T02:19:30.483Z,1034.04
2017-01-19T02:20:41.205Z,1034
2017-01-19T02:21:51.907Z,1033.99
2017-01-19T02:23:02.611Z,1033.99
2017-01-19T02:24:13.325Z,1034.01
2017-01-19T02:25:24.053Z,1033.99
2017-01-19T02:26:34.750Z,1034
2017-01-19T02:27:45.460Z,1034.01
2017-01-19T02:28:56.189Z,1034.02
2017-01-19T02:30:06.908Z,1034.01
2017-01-19T02:31:17.655Z,1033.99
2017-01-19T02:32:28.371Z,1034.02
2017-01-19T02:33:39.121Z,1034.05
2017-01-19T02:34:49.835Z,1034.03
2017-01-19T02:36:00.550Z,1033.98
2017-01-19T02:37:11.656Z,1033.97
2017-01-19T02:38:22.386Z,1033.99
2017-01-19T02:39:33.498Z,1034.01
2017-01-19T02:40:44.207Z,1034.03
2017-01-19T02:41:54.913Z,1034.08
2017-01-19T02:43:05.627Z,1034.06
2017-01-19T02:44:16.339Z,1034.05
2017-01-19T02:45:27.068Z,1034.03
2017-01-19T02:46:37.786Z,1034.02
2017-01-19T02:47:48.508Z,1033.99
2017-01-19T02:48:59.225Z,1034
2017-01-19T02:50:09.950Z,1034.01
2017-01-19T02:51:20.687Z,1034
2017-01-19T02:52:31.418Z,1033.97
2017-01-19T02:53:42.154Z,1034.02
2017-01-19T02:54:52.897Z,1034.04
2017-01-19T02:56:03.607Z,1034.02
2017-01-19T02:57:14.318Z,1034.03
2017-01-19T02:58:25.066Z,1033.99
2017-01-19T02:59:35.795Z,1034
2017-01-19T03:00:46.516Z,1034
2017-01-19T03:01:57.228Z,1034.02
2017-01-19T03:03:07.954Z,1034.04
2017-01-19T03:04:18.678Z,1034.04
2017-01-19T03:05:29.401Z,1034.04
2017-01-19T03:06:40.102Z,1034.06
2017-01-19T03:07:50.816Z,1034.06
2017-01-19T03:09:01.505Z,1034.06
2017-01-19T03:10:12.224Z,1034.08
2017-01-19T03:11:22.928Z,1034.1
2017-01-19T03:12:33.654Z,1034.09
2017-01-19T03:13:44.362Z,1034.07
2017-01-19T03:14:55.086Z,1034.06
2017-01-19T03:16:05.808Z,1034.11
2017-01-19T03:17:16.529Z,1034.14
2017-01-19T03:18:27.224Z,1034.15
2017-01-19T03:19:37.931Z,1034.18
2017-01-19T03:20:48.621Z,1034.14
2017-01-19T03:21:59.340Z,1034.2
2017-01-19T03:23:10.060Z,1034.18
2017-01-19T03:24:20.781Z,1034.18
2017-01-19T03:25:31.877Z,1034.12
2017-01-19T03:26:42.620Z,1034.08
2017-01-19T03:27:53.316Z,1034.08
2017-01-19T03:29:04.013Z,1034.06
2017-01-19T03:30:14.713Z,1034.04
2017-01-19T03:31:25.441Z,1033.97
2017-01-19T03:32:36.204Z,1033.99
2017-01-19T03:33:46.899Z,1033.96
2017-01-19T03:34:57.617Z,1033.91
2017-01-19T03:36:08.326Z,1033.91
2017-01-19T03:37:19.046Z,1033.92
2017-01-19T03:38:29.766Z,1033.94
2017-01-19T03:39:40.456Z,1033.88
2017-01-19T03:40:51.190Z,1033.9
2017-01-19T03:42:01.902Z,1033.84
2017-01-19T03:43:12.628Z,1033.86
2017-01-19T03:44:23.736Z,1033.85
2017-01-19T03:45:34.457Z,1033.86
2017-01-19T03:46:45.178Z,1033.85
2017-01-19T03:47:55.899Z,1033.8
2017-01-19T03:49:06.605Z,1033.84
2017-01-19T03:50:17.366Z,1033.85
2017-01-19T03:51:28.070Z,1033.89
2017-01-19T03:52:38.788Z,1033.89
2017-01-19T03:53:49.471Z,1033.88
2017-01-19T03:55:00.188Z,1033.93
2017-01-19T03:56:10.875Z,1033.89
2017-01-19T03:57:21.968Z,1033.87
2017-01-19T03:58:32.652Z,1033.92
2017-01-19T03:59:43.376Z,1033.94
2017-01-19T04:00:54.093Z,1033.88
2017-01-19T04:02:04.780Z,1033.91
2017-01-19T04:03:15.463Z,1033.86
2017-01-19T04:04:26.166Z,1033.85
2017-01-19T04:05:36.923Z,1033.84
2017-01-19T04:06:47.644Z,1033.87
2017-01-19T04:07:58.321Z,1033.86
2017-01-19T04:09:09.044Z,1033.83
2017-01-19T04:10:19.749Z,1033.81
2017-01-19T04:11:30.447Z,1033.77
2017-01-19T04:12:41.153Z,1033.77
2017-01-19T04:13:51.863Z,1033.79
2017-01-19T04:15:02.559Z,1033.77
2017-01-19T04:16:13.282Z,1033.82
2017-01-19T04:17:24.023Z,1033.81
2017-01-19T04:18:34.734Z,1033.79
2017-01-19T04:19:45.479Z,1033.79
2017-01-19T04:20:56.193Z,1033.77
2017-01-19T04:22:06.911Z,1033.78
2017-01-19T04:23:17.631Z,1033.77
2017-01-19T04:24:28.341Z,1033.8
2017-01-19T04:25:39.074Z,1033.86
2017-01-19T04:26:49.806Z,1033.87
2017-01-19T04:28:00.527Z,1033.83
2017-01-19T04:29:11.237Z,1033.84
2017-01-19T04:30:21.968Z,1033.81
2017-01-19T04:31:32.666Z,1033.81
2017-01-19T04:32:43.384Z,1033.83
2017-01-19T04:33:54.104Z,1033.81
2017-01-19T04:35:04.793Z,1033.77
2017-01-19T04:36:15.488Z,1033.75
2017-01-19T04:37:26.202Z,1033.75
2017-01-19T04:38:36.909Z,1033.72
2017-01-19T04:39:47.639Z,1033.7
2017-01-19T04:40:58.353Z,1033.69
2017-01-19T04:42:09.073Z,1033.68
2017-01-19T04:43:19.817Z,1033.7
2017-01-19T04:44:30.540Z,1033.63
2017-01-19T04:45:41.270Z,1033.66
2017-01-19T04:46:51.992Z,1033.59
2017-01-19T04:48:02.708Z,1033.61
2017-01-19T04:49:13.426Z,1033.56
2017-01-19T04:50:24.171Z,1033.56
2017-01-19T04:51:34.901Z,1033.56
2017-01-19T04:52:45.609Z,1033.52
2017-01-19T04:53:56.317Z,1033.5
2017-01-19T04:55:07.051Z,1033.48
2017-01-19T04:56:17.807Z,1033.44
2017-01-19T04:57:28.521Z,1033.47
2017-01-19T04:58:39.224Z,1033.41
2017-01-19T04:59:49.962Z,1033.44
2017-01-19T05:01:00.668Z,1033.44
2017-01-19T05:02:11.375Z,1033.39
2017-01-19T05:03:22.070Z,1033.37
2017-01-19T05:04:32.807Z,1033.38
2017-01-19T05:05:43.512Z,1033.37
2017-01-19T05:06:54.214Z,1033.36
2017-01-19T05:08:04.939Z,1033.4
2017-01-19T05:09:15.662Z,1033.39
2017-01-19T05:10:26.398Z,1033.37
2017-01-19T05:11:37.119Z,1033.29
2017-01-19T05:12:47.828Z,1033.29
2017-01-19T05:13:58.539Z,1033.27
2017-01-19T05:15:09.267Z,1033.23
2017-01-19T05:16:19.986Z,1033.16
2017-01-19T05:17:30.704Z,1033.17
2017-01-19T05:18:41.447Z,1033.15
2017-01-19T05:19:52.166Z,1033.11
2017-01-19T05:21:02.844Z,1033.1
2017-01-19T05:22:13.554Z,1033.11
2017-01-19T05:23:24.300Z,1033.13
2017-01-19T05:24:35.017Z,1033.13
2017-01-19T05:25:45.713Z,1033.19
2017-01-19T05:26:56.399Z,1033.2
2017-01-19T05:28:07.158Z,1033.18
2017-01-19T05:29:17.867Z,1033.2
2017-01-19T05:30:28.578Z,1033.19
2017-01-19T05:31:39.300Z,1033.2
2017-01-19T05:32:50.025Z,1033.25
2017-01-19T05:34:00.766Z,1033.21
2017-01-19T05:35:11.472Z,1033.24
2017-01-19T05:36:22.187Z,1033.25
2017-01-19T05:37:32.899Z,1033.26
2017-01-19T05:38:43.983Z,1033.28
2017-01-19T05:39:54.716Z,1033.29
2017-01-19T05:41:05.444Z,1033.29
2017-01-19T05:42:16.184Z,1033.26
2017-01-19T05:43:26.892Z,1033.26
2017-01-19T05:44:37.604Z,1033.23
2017-01-19T05:45:48.320Z,1033.24
2017-01-19T05:46:59.025Z,1033.21
2017-01-19T05:48:09.762Z,1033.23
2017-01-19T05:49:20.483Z,1033.18
2017-01-19T05:50:31.180Z,1033.12
2017-01-19T05:51:41.864Z,1033.12
2017-01-19T05:52:52.581Z,1033.09
2017-01-19T05:54:03.292Z,1033.11
2017-01-19T05:55:13.996Z,1033.08
2017-01-19T05:56:24.718Z,1033.11
2017-01-19T05:57:35.438Z,1033.12
2017-01-19T05:58:46.155Z,1033.11
2017-01-19T05:59:57.244Z,1033.11
2017-01-19T06:01:07.977Z,1033.09
2017-01-19T06:02:18.702Z,1033.06
2017-01-19T06:03:29.398Z,1033.11
2017-01-19T06:04:40.110Z,1033.15
2017-01-19T06:05:50.834Z,1033.12
2017-01-19T06:07:01.569Z,1033.12
2017-01-19T06:08:12.270Z,1033.13
2017-01-19T06:09:23.023Z,1033.1
2017-01-19T06:10:33.744Z,1033.12
2017-01-19T06:11:44.463Z,1033.14
2017-01-19T06:12:55.186Z,1033.17
2017-01-19T06:14:05.907Z,1033.21
2017-01-19T06:15:16.633Z,1033.23
2017-01-19T06:16:27.354Z,1033.23
2017-01-19T06:17:38.071Z,1033.19
2017-01-19T06:18:48.790Z,1033.23
2017-01-19T06:19:59.528Z,1033.22
2017-01-19T06:21:10.232Z,1033.23
2017-01-19T06:22:20.946Z,1033.29
2017-01-19T06:23:31.663Z,1033.31
2017-01-19T06:24:42.351Z,1033.29
2017-01-19T06:25:53.105Z,1033.27
2017-01-19T06:27:03.829Z,1033.31
2017-01-19T06:28:14.576Z,1033.32
2017-01-19T06:29:25.305Z,1033.28
2017-01-19T06:30:36.048Z,1033.32
2017-01-19T06:31:46.735Z,1033.33
2017-01-19T06:32:57.456Z,1033.32
2017-01-19T06:34:08.181Z,1033.35
2017-01-19T06:35:18.881Z,1033.36
2017-01-19T06:36:29.593Z,1033.33
2017-01-19T06:37:40.302Z,1033.3
2017-01-19T06:38:51.014Z,1033.25
2017-01-19T06:40:01.716Z,1033.26
2017-01-19T06:41:12.441Z,1033.23
2017-01-19T06:42:23.174Z,1033.24
2017-01-19T06:43:33.873Z,1033.24
2017-01-19T06:44:44.620Z,1033.27
2017-01-19T06:45:55.349Z,1033.31
2017-01-19T06:47:06.068Z,1033.36
2017-01-19T06:48:16.807Z,1033.39
2017-01-19T06:49:27.553Z,1033.38
2017-01-19T06:50:38.274Z,1033.36
2017-01-19T06:51:48.992Z,1033.37
2017-01-19T06:52:59.713Z,1033.43
2017-01-19T06:54:10.437Z,1033.41
2017-01-19T06:55:21.154Z,1033.37
2017-01-19T06:56:31.851Z,1033.36
2017-01-19T06:57:42.584Z,1033.34
2017-01-19T06:58:53.329Z,1033.34
2017-01-19T07:00:04.046Z,1033.35
2017-01-19T07:01:14.788Z,1033.38
2017-01-19T07:02:25.516Z,1033.41
2017-01-19T07:03:36.242Z,1033.43
2017-01-19T07:04:46.976Z,1033.44
2017-01-19T07:05:57.693Z,1033.48
2017-01-19T07:07:08.406Z,1033.48
2017-01-19T07:08:19.110Z,1033.49
2017-01-19T07:09:29.818Z,1033.5
2017-01-19T07:10:40.560Z,1033.52
2017-01-19T07:11:51.287Z,1033.55
2017-01-19T07:13:02.002Z,1033.54
2017-01-19T07:14:12.716Z,1033.56
2017-01-19T07:15:23.429Z,1033.61
2017-01-19T07:16:34.146Z,1033.56
2017-01-19T07:17:44.857Z,1033.56
2017-01-19T07:18:55.574Z,1033.57
2017-01-19T07:20:06.298Z,1033.57
2017-01-19T07:21:17.042Z,1033.57
2017-01-19T07:22:27.729Z,1033.6
2017-01-19T07:23:38.446Z,1033.56
2017-01-19T07:24:49.155Z,1033.64
2017-01-19T07:25:59.851Z,1033.62
2017-01-19T07:27:10.571Z,1033.56
2017-01-19T07:28:21.295Z,1033.54
2017-01-19T07:29:32.038Z,1033.52
2017-01-19T07:30:42.742Z,1033.57
2017-01-19T07:31:53.457Z,1033.52
2017-01-19T07:33:04.184Z,1033.54
2017-01-19T07:34:14.896Z,1033.55
2017-01-19T07:35:25.584Z,1033.59
2017-01-19T07:36:36.297Z,1033.59
2017-01-19T07:37:47.012Z,1033.66
2017-01-19T07:38:57.733Z,1033.65
2017-01-19T07:40:08.488Z,1033.68
2017-01-19T07:41:19.209Z,1033.68
2017-01-19T07:42:29.950Z,1033.62
2017-01-19T07:43:40.662Z,1033.64
2017-01-19T07:44:51.372Z,1033.68
2017-01-19T07:46:02.140Z,1033.7
2017-01-19T07:47:12.857Z,1033.72
2017-01-19T07:48:23.599Z,1033.66
2017-01-19T07:49:34.328Z,1033.65
2017-01-19T07:50:45.053Z,1033.63
2017-01-19T07:51:55.762Z,1033.64
2017-01-19T07:53:06.512Z,1033.69
2017-01-19T07:54:17.201Z,1033.71
2017-01-19T07:55:27.897Z,1033.66
2017-01-19T07:56:38.609Z,1033.69
2017-01-19T07:57:49.343Z,1033.67
2017-01-19T07:59:00.039Z,1033.68
2017-01-19T08:00:10.771Z,1033.68
2017-01-19T08:01:21.502Z,1033.69
2017-01-19T08:02:32.226Z,1033.73
2017-01-19T08:03:42.926Z,1033.79
2017-01-19T08:04:53.649Z,1033.77
2017-01-19T08:06:04.392Z,1033.75
2017-01-19T08:07:15.097Z,1033.7
2017-01-19T08:08:25.830Z,1033.73
2017-01-19T08:09:36.562Z,1033.77
2017-01-19T08:10:47.282Z,1033.78
2017-01-19T08:11:58.015Z,1033.72
2017-01-19T08:13:08.718Z,1033.77
2017-01-19T08:14:19.443Z,1033.77
2017-01-19T08:15:30.169Z,1033.78
2017-01-19T08:16:40.898Z,1033.83
2017-01-19T08:17:51.598Z,1033.91
2017-01-19T08:19:02.298Z,1033.84
2017-01-19T08:20:12.990Z,1033.84
2017-01-19T08:21:23.708Z,1033.81
2017-01-19T08:22:34.428Z,1033.84
2017-01-19T08:23:45.124Z,1033.87
2017-01-19T08:24:55.824Z,1033.85
2017-01-19T08:26:06.544Z,1033.83
2017-01-19T08:27:17.237Z,1033.82
2017-01-19T08:28:27.937Z,1033.83
2017-01-19T08:29:38.661Z,1033.85
2017-01-19T08:30:49.368Z,1033.86
2017-01-19T08:32:00.071Z,1033.86
2017-01-19T08:33:10.768Z,1033.8
2017-01-19T08:34:21.467Z,1033.79
2017-01-19T08:35:32.195Z,1033.76
2017-01-19T08:36:42.935Z,1033.77
2017-01-19T08:37:53.676Z,1033.71
2017-01-19T08:39:04.398Z,1033.67
2017-01-19T08:40:15.122Z,1033.68
2017-01-19T08:41:25.847Z,1033.65
2017-01-19T08:42:36.560Z,1033.73
2017-01-19T08:43:47.293Z,1033.75
2017-01-19T08:44:58.000Z,1033.76
2017-01-19T08:46:08.711Z,1033.74
2017-01-19T08:47:19.432Z,1033.72
2017-01-19T08:48:30.150Z,1033.81
2017-01-19T08:49:40.898Z,1033.8
2017-01-19T08:50:51.659Z,1033.84
2017-01-19T08:52:02.412Z,1033.86
2017-01-19T08:53:13.549Z,1033.91
2017-01-19T08:54:24.257Z,1033.96
2017-01-19T08:55:34.970Z,1033.99
2017-01-19T08:56:45.695Z,1033.94
2017-01-19T08:57:56.437Z,1033.97
2017-01-19T08:59:07.155Z,1033.93
2017-01-19T09:00:17.880Z,1033.93
2017-01-19T09:01:28.622Z,1033.92
2017-01-19T09:02:39.329Z,1033.92
2017-01-19T09:03:50.072Z,1033.95
2017-01-19T09:05:00.814Z,1033.92
2017-01-19T09:06:11.560Z,1033.96
2017-01-19T09:07:22.285Z,1034
2017-01-19T09:08:32.998Z,1034.03
2017-01-19T09:09:43.709Z,1034.01
2017-01-19T09:10:54.439Z,1034.01
2017-01-19T09:12:05.186Z,1034.01
2017-01-19T09:13:15.889Z,1034
2017-01-19T09:14:26.638Z,1033.95
2017-01-19T09:15:37.359Z,1033.97
2017-01-19T09:16:48.044Z,1033.9
2017-01-19T09:17:58.793Z,1034
2017-01-19T09:19:09.515Z,1034.02
2017-01-19T09:20:20.239Z,1034.03
2017-01-19T09:21:30.978Z,1033.98
2017-01-19T09:22:41.677Z,1033.94
2017-01-19T09:23:52.398Z,1033.9
2017-01-19T09:25:03.098Z,1033.97
2017-01-19T09:26:13.823Z,1033.92
2017-01-19T09:27:24.587Z,1033.98
2017-01-19T09:28:35.339Z,1034.01
2017-01-19T09:29:46.074Z,1033.96
2017-01-19T09:30:56.807Z,1033.93
2017-01-19T09:32:07.548Z,1033.88
2017-01-19T09:33:18.273Z,1033.89
2017-01-19T09:34:29.011Z,1033.9
2017-01-19T09:35:39.766Z,1033.92
2017-01-19T09:36:50.507Z,1034
2017-01-19T09:38:01.206Z,1033.98
2017-01-19T09:39:11.916Z,1033.98
2017-01-19T09:40:22.648Z,1033.92
2017-01-19T09:41:33.370Z,1033.95
2017-01-19T09:42:44.104Z,1033.91
2017-01-19T09:43:54.837Z,1033.92
2017-01-19T09:45:05.550Z,1033.92
2017-01-19T09:46:16.245Z,1033.93
2017-01-19T09:47:26.975Z,1033.88
2017-01-19T09:48:37.716Z,1033.85
2017-01-19T09:49:48.433Z,1033.9
2017-01-19T09:50:59.175Z,1033.89
2017-01-19T09:52:09.904Z,1033.91
2017-01-19T09:53:20.647Z,1033.87
2017-01-19T09:54:31.371Z,1033.87
2017-01-19T09:55:42.067Z,1033.85
2017-01-19T09:56:52.763Z,1033.89
2017-01-19T09:58:03.505Z,1033.89
2017-01-19T09:59:14.234Z,1033.87
2017-01-19T10:00:24.952Z,1033.85
2017-01-19T10:01:35.675Z,1033.87
2017-01-19T10:02:46.422Z,1033.84
2017-01-19T10:03:57.168Z,1033.83
2017-01-19T10:05:07.906Z,1033.83
2017-01-19T10:06:18.614Z,1033.85
2017-01-19T10:07:29.352Z,1033.91
2017-01-19T10:08:40.094Z,1033.95
2017-01-19T10:09:50.847Z,1033.95
2017-01-19T10:11:01.587Z,1034
2017-01-19T10:12:12.308Z,1034.04
2017-01-19T10:13:23.034Z,1034.08
2017-01-19T10:14:33.783Z,1034.1
2017-01-19T10:15:44.516Z,1034.09
2017-01-19T10:16:55.225Z,1034.08
2017-01-19T10:18:05.987Z,1034.07
2017-01-19T10:19:16.693Z,1034
2017-01-19T10:20:27.434Z,1033.99
2017-01-19T10:21:38.159Z,1033.92
2017-01-19T10:22:48.905Z,1033.93
2017-01-19T10:23:59.614Z,1033.95
2017-01-19T10:25:10.322Z,1033.97
2017-01-19T10:26:21.064Z,1033.95
2017-01-19T10:27:31.791Z,1033.93
2017-01-19T10:28:42.536Z,1033.94
2017-01-19T10:29:53.245Z,1033.96
2017-01-19T10:31:03.953Z,1033.96
2017-01-19T10:32:14.686Z,1033.95
2017-01-19T10:33:25.407Z,1033.97
2017-01-19T10:34:36.114Z,1033.98
2017-01-19T10:35:46.850Z,1033.97
2017-01-19T10:36:57.570Z,1033.95
2017-01-19T10:38:08.295Z,1033.9
2017-01-19T10:39:19.025Z,1033.92
2017-01-19T10:40:29.734Z,1033.9
2017-01-19T10:41:40.466Z,1033.85
2017-01-19T10:42:51.180Z,1033.86
2017-01-19T10:44:01.900Z,1033.84
2017-01-19T10:45:12.629Z,1033.81
2017-01-19T10:46:23.349Z,1033.81
2017-01-19T10:47:34.067Z,1033.83
2017-01-19T10:48:44.788Z,1033.81
2017-01-19T10:49:55.939Z,1033.78
2017-01-19T10:51:06.663Z,1033.77
2017-01-19T10:52:17.379Z,1033.74
2017-01-19T10:53:28.102Z,1033.71
2017-01-19T10:54:38.823Z,1033.78
2017-01-19T10:55:49.557Z,1033.76
2017-01-19T10:57:00.279Z,1033.78
2017-01-19T10:58:10.999Z,1033.8
2017-01-19T10:59:21.724Z,1033.79
2017-01-19T11:00:32.452Z,1033.78
2017-01-19T11:01:43.195Z,1033.74
2017-01-19T11:02:53.946Z,1033.62
2017-01-19T11:04:04.680Z,1033.65
2017-01-19T11:05:15.402Z,1033.63
2017-01-19T11:06:26.110Z,1033.6
2017-01-19T11:07:36.851Z,1033.61
2017-01-19T11:08:47.601Z,1033.56
2017-01-19T11:09:58.360Z,1033.6
2017-01-19T11:11:09.092Z,1033.57
2017-01-19T11:12:19.813Z,1033.55
2017-01-19T11:13:30.531Z,1033.61
2017-01-19T11:14:41.252Z,1033.53
2017-01-19T11:15:51.973Z,1033.5
2017-01-19T11:17:02.686Z,1033.53
2017-01-19T11:18:13.408Z,1033.52
2017-01-19T11:19:24.128Z,1033.5
2017-01-19T11:20:34.853Z,1033.48
2017-01-19T11:21:45.587Z,1033.49
2017-01-19T11:22:56.320Z,1033.48
2017-01-19T11:24:07.045Z,1033.43
2017-01-19T11:25:17.762Z,1033.44
2017-01-19T11:26:28.517Z,1033.46
2017-01-19T11:27:39.234Z,1033.47
2017-01-19T11:28:49.947Z,1033.48
2017-01-19T11:30:00.681Z,1033.4
2017-01-19T11:31:11.418Z,1033.37
2017-01-19T11:32:22.161Z,1033.38
2017-01-19T11:33:32.866Z,1033.3
2017-01-19T11:34:43.590Z,1033.27
2017-01-19T11:35:54.311Z,1033.26
2017-01-19T11:37:05.049Z,1033.25
2017-01-19T11:38:15.774Z,1033.28
2017-01-19T11:39:26.523Z,1033.28
2017-01-19T11:40:37.261Z,1033.23
2017-01-19T11:41:48.041Z,1033.27
2017-01-19T11:42:58.775Z,1033.26
2017-01-19T11:44:09.471Z,1033.19
2017-01-19T11:45:20.180Z,1033.21
2017-01-19T11:46:30.942Z,1033.17
2017-01-19T11:47:41.689Z,1033.14
2017-01-19T11:48:52.392Z,1033.12
2017-01-19T11:50:03.134Z,1033.09
2017-01-19T11:51:13.833Z,1033.07
2017-01-19T11:52:24.556Z,1033.1
2017-01-19T11:53:35.277Z,1033.02
2017-01-19T11:54:45.987Z,1032.99
2017-01-19T11:55:56.693Z,1032.99
2017-01-19T11:57:07.414Z,1032.98
2017-01-19T11:58:18.158Z,1033
2017-01-19T11:59:28.907Z,1032.95
2017-01-19T12:00:39.654Z,1032.99
2017-01-19T12:01:50.363Z,1032.96
2017-01-19T12:03:01.087Z,1032.94
2017-01-19T12:04:11.813Z,1032.95
2017-01-19T12:05:22.536Z,1032.98
2017-01-19T12:06:33.263Z,1032.99
2017-01-19T12:07:43.994Z,1032.98
2017-01-19T12:08:54.725Z,1032.98
2017-01-19T12:10:05.439Z,1032.94
2017-01-19T12:11:16.185Z,1032.92
2017-01-19T12:12:26.927Z,1032.92
2017-01-19T12:13:37.656Z,1032.93
2017-01-19T12:14:48.370Z,1032.94
2017-01-19T12:15:59.091Z,1032.88
2017-01-19T12:17:09.820Z,1032.88
2017-01-19T12:18:20.544Z,1032.86
2017-01-19T12:19:31.307Z,1032.87
2017-01-19T12:20:42.076Z,1032.85
2017-01-19T12:21:52.780Z,1032.85
2017-01-19T12:23:03.525Z,1032.89
2017-01-19T12:24:14.274Z,1032.87
2017-01-19T12:25:24.988Z,1032.91
2017-01-19T12:26:35.697Z,1032.91
2017-01-19T12:27:46.427Z,1032.89
2017-01-19T12:28:57.136Z,1032.93
2017-01-19T12:30:07.881Z,1032.88
2017-01-19T12:31:18.601Z,1032.83
2017-01-19T12:32:29.321Z,1032.79
2017-01-19T12:33:40.043Z,1032.79
2017-01-19T12:34:50.779Z,1032.79
2017-01-19T12:36:01.502Z,1032.76
2017-01-19T12:37:12.228Z,1032.79
2017-01-19T12:38:22.950Z,1032.78
2017-01-19T12:39:33.693Z,1032.77
2017-01-19T12:40:44.417Z,1032.8
2017-01-19T12:41:55.164Z,1032.78
2017-01-19T12:43:05.879Z,1032.76
2017-01-19T12:44:16.598Z,1032.8
2017-01-19T12:45:27.305Z,1032.77
2017-01-19T12:46:38.062Z,1032.78
2017-01-19T12:47:48.791Z,1032.79
2017-01-19T12:48:59.515Z,1032.8
2017-01-19T12:50:10.223Z,1032.81
2017-01-19T12:51:20.927Z,1032.79
2017-01-19T12:52:31.651Z,1032.8
2017-01-19T12:53:42.374Z,1032.83
2017-01-19T12:54:53.093Z,1032.84
2017-01-19T12:56:03.806Z,1032.82
2017-01-19T12:57:14.528Z,1032.86
2017-01-19T12:58:25.256Z,1032.87
2017-01-19T12:59:35.973Z,1032.84
2017-01-19T13:00:46.697Z,1032.87
2017-01-19T13:01:57.436Z,1032.87
2017-01-19T13:03:08.179Z,1032.83
2017-01-19T13:04:18.885Z,1032.82
2017-01-19T13:05:30.006Z,1032.84
2017-01-19T13:06:40.727Z,1032.79
2017-01-19T13:07:51.466Z,1032.79
2017-01-19T13:09:02.197Z,1032.79
2017-01-19T13:10:12.913Z,1032.72
2017-01-19T13:11:23.650Z,1032.74
2017-01-19T13:12:34.372Z,1032.75
2017-01-19T13:13:45.097Z,1032.74
2017-01-19T13:14:55.803Z,1032.77
2017-01-19T13:16:06.535Z,1032.81
2017-01-19T13:17:17.255Z,1032.77
2017-01-19T13:18:27.951Z,1032.82
2017-01-19T13:19:38.660Z,1032.86
2017-01-19T13:20:49.377Z,1032.85
2017-01-19T13:22:00.118Z,1032.87
2017-01-19T13:23:10.820Z,1032.86
2017-01-19T13:24:21.547Z,1032.88
2017-01-19T13:25:32.287Z,1032.88
2017-01-19T13:26:43.024Z,1032.9
2017-01-19T13:27:53.759Z,1032.84
2017-01-19T13:29:04.501Z,1032.83
2017-01-19T13:30:15.223Z,1032.81
2017-01-19T13:31:25.969Z,1032.79
2017-01-19T13:32:36.704Z,1032.75
2017-01-19T13:33:47.436Z,1032.73
2017-01-19T13:34:58.154Z,1032.7
2017-01-19T13:36:08.903Z,1032.71
2017-01-19T13:37:19.620Z,1032.72
2017-01-19T13:38:30.319Z,1032.7
2017-01-19T13:39:41.059Z,1032.67
2017-01-19T13:40:51.779Z,1032.67
2017-01-19T13:42:02.483Z,1032.65
2017-01-19T13:43:13.196Z,1032.65
2017-01-19T13:44:23.917Z,1032.6
2017-01-19T13:45:34.645Z,1032.62
2017-01-19T13:46:45.369Z,1032.56
2017-01-19T13:47:56.104Z,1032.55
2017-01-19T13:49:06.829Z,1032.56
2017-01-19T13:50:17.553Z,1032.6
2017-01-19T13:51:28.271Z,1032.52
2017-01-19T13:52:39.021Z,1032.59
2017-01-19T13:53:49.781Z,1032.58
2017-01-19T13:55:00.491Z,1032.57
2017-01-19T13:56:11.226Z,1032.55
2017-01-19T13:57:21.971Z,1032.54
2017-01-19T13:58:32.714Z,1032.54
2017-01-19T13:59:43.445Z,1032.59
2017-01-19T14:00:54.184Z,1032.54
2017-01-19T14:02:04.937Z,1032.57
2017-01-19T14:03:15.680Z,1032.58
2017-01-19T14:04:26.398Z,1032.56
2017-01-19T14:05:37.125Z,1032.57
2017-01-19T14:06:47.847Z,1032.6
2017-01-19T14:07:58.582Z,1032.6
2017-01-19T14:09:09.303Z,1032.57
2017-01-19T14:10:20.034Z,1032.58
2017-01-19T14:11:30.774Z,1032.52
2017-01-19T14:12:41.466Z,1032.55
2017-01-19T14:13:52.197Z,1032.56
2017-01-19T14:15:02.893Z,1032.57
2017-01-19T14:16:13.607Z,1032.53
2017-01-19T14:17:24.361Z,1032.54
2017-01-19T14:18:35.095Z,1032.55